sensor_id;sensor_type;location;lat;lon;timestamp;temperature;humidity
30520;DHT22;17300;50.374;8.006;2023-07-13T00:01:43;22.90;41.50
30520;DHT22;17300;50.374;8.006;2023-07-13T00:04:13;22.90;41.60
30520;DHT22;17300;50.374;8.006;2023-07-13T00:06:40;22.90;41.60
30520;DHT22;17300;50.374;8.006;2023-07-13T00:09:11;23.00;41.70
30520;DHT22;17300;50.374;8.006;2023-07-13T00:11:39;23.00;42.00
30520;DHT22;17300;50.374;8.006;2023-07-13T00:14:05;23.00;41.80
30520;DHT22;17300;50.374;8.006;2023-07-13T00:16:33;23.00;41.90
30520;DHT22;17300;50.374;8.006;2023-07-13T00:19:00;23.10;42.00
30520;DHT22;17300;50.374;8.006;2023-07-13T00:21:27;23.10;41.80
30520;DHT22;17300;50.374;8.006;2023-07-13T00:23:54;23.10;41.90
30520;DHT22;17300;50.374;8.006;2023-07-13T00:26:22;23.10;41.90
30520;DHT22;17300;50.374;8.006;2023-07-13T00:28:48;23.10;42.00
30520;DHT22;17300;50.374;8.006;2023-07-13T00:31:15;23.10;41.70
30520;DHT22;17300;50.374;8.006;2023-07-13T00:33:42;23.00;41.80
30520;DHT22;17300;50.374;8.006;2023-07-13T00:36:09;23.00;41.90
30520;DHT22;17300;50.374;8.006;2023-07-13T00:38:36;23.00;41.90
30520;DHT22;17300;50.374;8.006;2023-07-13T00:41:04;22.90;41.90
30520;DHT22;17300;50.374;8.006;2023-07-13T00:43:32;22.90;42.10
30520;DHT22;17300;50.374;8.006;2023-07-13T00:46:18;22.80;42.30
30520;DHT22;17300;50.374;8.006;2023-07-13T00:48:47;22.80;42.70
30520;DHT22;17300;50.374;8.006;2023-07-13T00:51:17;22.80;42.30
30520;DHT22;17300;50.374;8.006;2023-07-13T00:53:44;22.70;42.20
30520;DHT22;17300;50.374;8.006;2023-07-13T00:56:11;22.70;42.10
30520;DHT22;17300;50.374;8.006;2023-07-13T00:58:39;22.70;41.90
30520;DHT22;17300;50.374;8.006;2023-07-13T01:01:06;22.60;42.00
30520;DHT22;17300;50.374;8.006;2023-07-13T01:03:34;22.60;41.90
30520;DHT22;17300;50.374;8.006;2023-07-13T01:06:01;22.60;42.20
30520;DHT22;17300;50.374;8.006;2023-07-13T01:08:28;22.60;42.10
30520;DHT22;17300;50.374;8.006;2023-07-13T01:10:56;22.60;42.20
30520;DHT22;17300;50.374;8.006;2023-07-13T01:13:23;22.50;42.00
30520;DHT22;17300;50.374;8.006;2023-07-13T01:15:52;22.50;42.20
30520;DHT22;17300;50.374;8.006;2023-07-13T01:18:21;22.40;42.10
30520;DHT22;17300;50.374;8.006;2023-07-13T01:20:55;22.40;42.10
30520;DHT22;17300;50.374;8.006;2023-07-13T01:23:23;22.30;42.20
30520;DHT22;17300;50.374;8.006;2023-07-13T01:25:50;22.20;42.00
30520;DHT22;17300;50.374;8.006;2023-07-13T01:28:16;22.20;42.10
30520;DHT22;17300;50.374;8.006;2023-07-13T01:30:45;22.10;42.10
30520;DHT22;17300;50.374;8.006;2023-07-13T01:33:13;22.10;42.30
30520;DHT22;17300;50.374;8.006;2023-07-13T01:35:40;22.00;42.30
30520;DHT22;17300;50.374;8.006;2023-07-13T01:38:09;22.00;42.40
30520;DHT22;17300;50.374;8.006;2023-07-13T01:40:37;21.90;42.50
30520;DHT22;17300;50.374;8.006;2023-07-13T01:43:05;21.80;42.50
30520;DHT22;17300;50.374;8.006;2023-07-13T01:45:31;21.70;42.40
30520;DHT22;17300;50.374;8.006;2023-07-13T01:47:58;21.70;42.60
30520;DHT22;17300;50.374;8.006;2023-07-13T01:50:25;21.70;42.60
30520;DHT22;17300;50.374;8.006;2023-07-13T01:52:52;21.60;42.60
30520;DHT22;17300;50.374;8.006;2023-07-13T01:55:21;21.50;42.60
30520;DHT22;17300;50.374;8.006;2023-07-13T01:57:48;21.50;42.80
30520;DHT22;17300;50.374;8.006;2023-07-13T02:00:15;21.40;42.70
30520;DHT22;17300;50.374;8.006;2023-07-13T02:02:42;21.30;42.70
30520;DHT22;17300;50.374;8.006;2023-07-13T02:05:09;21.30;43.00
30520;DHT22;17300;50.374;8.006;2023-07-13T02:07:36;21.20;43.00
30520;DHT22;17300;50.374;8.006;2023-07-13T02:10:04;21.20;43.00
30520;DHT22;17300;50.374;8.006;2023-07-13T02:12:32;21.10;43.10
30520;DHT22;17300;50.374;8.006;2023-07-13T02:14:59;21.10;43.30
30520;DHT22;17300;50.374;8.006;2023-07-13T02:17:26;21.00;43.20
30520;DHT22;17300;50.374;8.006;2023-07-13T02:19:53;21.00;43.30
30520;DHT22;17300;50.374;8.006;2023-07-13T02:22:20;20.90;43.30
30520;DHT22;17300;50.374;8.006;2023-07-13T02:24:46;20.90;43.40
30520;DHT22;17300;50.374;8.006;2023-07-13T02:27:13;20.80;43.50
30520;DHT22;17300;50.374;8.006;2023-07-13T02:29:41;20.80;43.60
30520;DHT22;17300;50.374;8.006;2023-07-13T02:32:08;20.70;43.60
30520;DHT22;17300;50.374;8.006;2023-07-13T02:34:35;20.70;43.70
30520;DHT22;17300;50.374;8.006;2023-07-13T02:37:02;20.70;43.80
30520;DHT22;17300;50.374;8.006;2023-07-13T02:39:29;20.60;43.70
30520;DHT22;17300;50.374;8.006;2023-07-13T02:41:58;20.60;43.70
30520;DHT22;17300;50.374;8.006;2023-07-13T02:44:25;20.50;43.60
30520;DHT22;17300;50.374;8.006;2023-07-13T02:46:53;20.50;43.70
30520;DHT22;17300;50.374;8.006;2023-07-13T02:49:19;20.40;43.80
30520;DHT22;17300;50.374;8.006;2023-07-13T02:51:46;20.40;43.90
30520;DHT22;17300;50.374;8.006;2023-07-13T02:54:13;20.40;43.90
30520;DHT22;17300;50.374;8.006;2023-07-13T02:56:40;20.40;43.90
30520;DHT22;17300;50.374;8.006;2023-07-13T02:59:09;20.30;43.90
30520;DHT22;17300;50.374;8.006;2023-07-13T03:01:35;20.30;43.90
30520;DHT22;17300;50.374;8.006;2023-07-13T03:04:04;20.30;44.00
30520;DHT22;17300;50.374;8.006;2023-07-13T03:06:31;20.20;44.00
30520;DHT22;17300;50.374;8.006;2023-07-13T03:08:57;20.20;44.10
30520;DHT22;17300;50.374;8.006;2023-07-13T03:11:25;20.20;44.10
30520;DHT22;17300;50.374;8.006;2023-07-13T03:13:52;20.20;44.10
30520;DHT22;17300;50.374;8.006;2023-07-13T03:16:19;20.10;44.00
30520;DHT22;17300;50.374;8.006;2023-07-13T03:18:46;20.10;44.10
30520;DHT22;17300;50.374;8.006;2023-07-13T03:21:15;20.00;44.10
30520;DHT22;17300;50.374;8.006;2023-07-13T03:23:42;20.00;44.20
30520;DHT22;17300;50.374;8.006;2023-07-13T03:26:11;20.00;44.20
30520;DHT22;17300;50.374;8.006;2023-07-13T03:28:39;20.00;44.40
30520;DHT22;17300;50.374;8.006;2023-07-13T03:31:08;20.00;44.40
30520;DHT22;17300;50.374;8.006;2023-07-13T03:33:35;19.90;44.40
30520;DHT22;17300;50.374;8.006;2023-07-13T03:36:03;19.90;44.40
30520;DHT22;17300;50.374;8.006;2023-07-13T03:38:32;19.90;44.60
30520;DHT22;17300;50.374;8.006;2023-07-13T03:40:58;19.90;44.80
30520;DHT22;17300;50.374;8.006;2023-07-13T03:43:25;19.80;44.80
30520;DHT22;17300;50.374;8.006;2023-07-13T03:45:52;19.80;44.80
30520;DHT22;17300;50.374;8.006;2023-07-13T03:48:18;19.80;44.70
30520;DHT22;17300;50.374;8.006;2023-07-13T03:50:47;19.80;44.70
30520;DHT22;17300;50.374;8.006;2023-07-13T03:53:14;19.70;44.90
30520;DHT22;17300;50.374;8.006;2023-07-13T03:55:42;19.70;45.10
30520;DHT22;17300;50.374;8.006;2023-07-13T03:58:31;19.70;45.40
30520;DHT22;17300;50.374;8.006;2023-07-13T04:00:59;19.70;46.20
30520;DHT22;17300;50.374;8.006;2023-07-13T04:03:27;19.70;45.40
30520;DHT22;17300;50.374;8.006;2023-07-13T04:05:55;19.60;45.60
30520;DHT22;17300;50.374;8.006;2023-07-13T04:08:25;19.60;45.80
30520;DHT22;17300;50.374;8.006;2023-07-13T04:10:53;19.50;45.90
30520;DHT22;17300;50.374;8.006;2023-07-13T04:13:20;19.50;46.10
30520;DHT22;17300;50.374;8.006;2023-07-13T04:15:46;19.50;46.10
30520;DHT22;17300;50.374;8.006;2023-07-13T04:18:13;19.40;46.20
30520;DHT22;17300;50.374;8.006;2023-07-13T04:20:40;19.40;46.30
30520;DHT22;17300;50.374;8.006;2023-07-13T04:23:06;19.40;46.40
30520;DHT22;17300;50.374;8.006;2023-07-13T04:25:33;19.40;46.30
30520;DHT22;17300;50.374;8.006;2023-07-13T04:28:02;19.30;46.50
30520;DHT22;17300;50.374;8.006;2023-07-13T04:30:29;19.30;46.80
30520;DHT22;17300;50.374;8.006;2023-07-13T04:32:56;19.30;46.90
30520;DHT22;17300;50.374;8.006;2023-07-13T04:35:23;19.30;47.10
30520;DHT22;17300;50.374;8.006;2023-07-13T04:37:50;19.30;47.20
30520;DHT22;17300;50.374;8.006;2023-07-13T04:40:17;19.30;47.30
30520;DHT22;17300;50.374;8.006;2023-07-13T04:42:44;19.30;47.40
30520;DHT22;17300;50.374;8.006;2023-07-13T04:45:12;19.40;47.40
30520;DHT22;17300;50.374;8.006;2023-07-13T04:47:40;19.40;47.40
30520;DHT22;17300;50.374;8.006;2023-07-13T04:50:08;19.40;47.20
30520;DHT22;17300;50.374;8.006;2023-07-13T04:52:36;19.40;47.10
30520;DHT22;17300;50.374;8.006;2023-07-13T04:55:03;19.50;47.00
30520;DHT22;17300;50.374;8.006;2023-07-13T04:57:30;19.50;46.90
30520;DHT22;17300;50.374;8.006;2023-07-13T04:59:58;19.50;46.70
30520;DHT22;17300;50.374;8.006;2023-07-13T05:02:27;19.60;46.60
30520;DHT22;17300;50.374;8.006;2023-07-13T05:04:56;19.70;46.90
30520;DHT22;17300;50.374;8.006;2023-07-13T05:07:24;19.70;46.60
30520;DHT22;17300;50.374;8.006;2023-07-13T05:09:51;19.70;46.80
30520;DHT22;17300;50.374;8.006;2023-07-13T05:12:18;19.80;47.20
30520;DHT22;17300;50.374;8.006;2023-07-13T05:14:45;19.60;48.50
30520;DHT22;17300;50.374;8.006;2023-07-13T05:17:12;19.80;47.90
30520;DHT22;17300;50.374;8.006;2023-07-13T05:19:40;19.90;47.50
30520;DHT22;17300;50.374;8.006;2023-07-13T05:22:06;20.00;47.50
30520;DHT22;17300;50.374;8.006;2023-07-13T05:24:33;20.20;47.40
30520;DHT22;17300;50.374;8.006;2023-07-13T05:27:00;20.30;47.10
30520;DHT22;17300;50.374;8.006;2023-07-13T05:29:27;20.30;47.00
30520;DHT22;17300;50.374;8.006;2023-07-13T05:31:54;20.50;47.80
30520;DHT22;17300;50.374;8.006;2023-07-13T05:34:20;20.80;49.30
30520;DHT22;17300;50.374;8.006;2023-07-13T05:36:48;21.30;50.70
30520;DHT22;17300;50.374;8.006;2023-07-13T05:39:16;21.90;51.70
30520;DHT22;17300;50.374;8.006;2023-07-13T05:41:43;22.70;52.30
30520;DHT22;17300;50.374;8.006;2023-07-13T05:44:09;23.60;52.60
30520;DHT22;17300;50.374;8.006;2023-07-13T05:46:36;24.70;52.50
30520;DHT22;17300;50.374;8.006;2023-07-13T05:49:03;25.60;51.70
30520;DHT22;17300;50.374;8.006;2023-07-13T05:51:30;26.70;50.70
30520;DHT22;17300;50.374;8.006;2023-07-13T05:53:58;27.70;49.70
30520;DHT22;17300;50.374;8.006;2023-07-13T05:56:25;28.70;48.30
30520;DHT22;17300;50.374;8.006;2023-07-13T05:58:52;29.60;47.00
30520;DHT22;17300;50.374;8.006;2023-07-13T06:01:19;30.50;45.70
30520;DHT22;17300;50.374;8.006;2023-07-13T06:03:47;31.30;44.40
30520;DHT22;17300;50.374;8.006;2023-07-13T06:06:15;32.10;43.10
30520;DHT22;17300;50.374;8.006;2023-07-13T06:08:42;32.90;41.70
30520;DHT22;17300;50.374;8.006;2023-07-13T06:11:14;33.60;40.80
30520;DHT22;17300;50.374;8.006;2023-07-13T06:13:41;34.30;38.80
30520;DHT22;17300;50.374;8.006;2023-07-13T06:16:08;34.90;38.50
30520;DHT22;17300;50.374;8.006;2023-07-13T06:18:35;35.50;37.40
30520;DHT22;17300;50.374;8.006;2023-07-13T06:21:06;36.00;36.30
30520;DHT22;17300;50.374;8.006;2023-07-13T06:23:33;36.50;35.20
30520;DHT22;17300;50.374;8.006;2023-07-13T06:26:00;37.70;28.30
30520;DHT22;17300;50.374;8.006;2023-07-13T06:28:28;37.80;30.80
30520;DHT22;17300;50.374;8.006;2023-07-13T06:30:55;38.20;31.20
30520;DHT22;17300;50.374;8.006;2023-07-13T06:33:21;38.50;30.80
30520;DHT22;17300;50.374;8.006;2023-07-13T06:35:48;38.80;30.30
30520;DHT22;17300;50.374;8.006;2023-07-13T06:38:15;39.10;29.80
30520;DHT22;17300;50.374;8.006;2023-07-13T06:40:42;39.30;29.60
30520;DHT22;17300;50.374;8.006;2023-07-13T06:43:09;39.60;29.40
30520;DHT22;17300;50.374;8.006;2023-07-13T06:45:41;39.80;28.90
30520;DHT22;17300;50.374;8.006;2023-07-13T06:48:08;40.10;28.10
30520;DHT22;17300;50.374;8.006;2023-07-13T06:50:34;40.30;28.40
30520;DHT22;17300;50.374;8.006;2023-07-13T06:53:01;40.60;28.20
30520;DHT22;17300;50.374;8.006;2023-07-13T06:55:28;40.90;27.90
30520;DHT22;17300;50.374;8.006;2023-07-13T06:57:54;41.20;27.50
30520;DHT22;17300;50.374;8.006;2023-07-13T07:00:21;41.50;26.90
30520;DHT22;17300;50.374;8.006;2023-07-13T07:02:49;41.70;26.20
30520;DHT22;17300;50.374;8.006;2023-07-13T07:05:16;41.80;25.60
30520;DHT22;17300;50.374;8.006;2023-07-13T07:07:43;41.80;25.10
30520;DHT22;17300;50.374;8.006;2023-07-13T07:10:10;41.60;24.70
30520;DHT22;17300;50.374;8.006;2023-07-13T07:12:36;41.30;24.50
30520;DHT22;17300;50.374;8.006;2023-07-13T07:15:04;41.00;24.80
30520;DHT22;17300;50.374;8.006;2023-07-13T07:17:30;40.80;24.70
30520;DHT22;17300;50.374;8.006;2023-07-13T07:19:58;40.60;25.10
30520;DHT22;17300;50.374;8.006;2023-07-13T07:22:25;40.60;25.40
30520;DHT22;17300;50.374;8.006;2023-07-13T07:24:52;40.60;25.40
30520;DHT22;17300;50.374;8.006;2023-07-13T07:27:19;40.70;25.30
30520;DHT22;17300;50.374;8.006;2023-07-13T07:29:46;40.80;25.10
30520;DHT22;17300;50.374;8.006;2023-07-13T07:32:12;40.90;24.90
30520;DHT22;17300;50.374;8.006;2023-07-13T07:34:39;41.00;24.90
30520;DHT22;17300;50.374;8.006;2023-07-13T07:37:11;41.20;25.00
30520;DHT22;17300;50.374;8.006;2023-07-13T07:39:38;41.40;24.40
30520;DHT22;17300;50.374;8.006;2023-07-13T07:42:06;41.40;24.20
30520;DHT22;17300;50.374;8.006;2023-07-13T07:44:33;41.50;23.90
30520;DHT22;17300;50.374;8.006;2023-07-13T07:47:00;41.50;24.00
30520;DHT22;17300;50.374;8.006;2023-07-13T07:49:27;41.40;23.70
30520;DHT22;17300;50.374;8.006;2023-07-13T07:51:53;41.30;23.30
30520;DHT22;17300;50.374;8.006;2023-07-13T07:54:21;41.00;22.90
30520;DHT22;17300;50.374;8.006;2023-07-13T07:56:48;40.60;22.70
30520;DHT22;17300;50.374;8.006;2023-07-13T07:59:15;40.10;22.50
30520;DHT22;17300;50.374;8.006;2023-07-13T08:01:42;39.60;22.80
30520;DHT22;17300;50.374;8.006;2023-07-13T08:04:09;39.00;22.80
30520;DHT22;17300;50.374;8.006;2023-07-13T08:06:35;38.40;22.90
30520;DHT22;17300;50.374;8.006;2023-07-13T08:09:03;37.90;23.10
30520;DHT22;17300;50.374;8.006;2023-07-13T08:11:31;37.60;24.40
30520;DHT22;17300;50.374;8.006;2023-07-13T08:13:58;37.40;24.70
30520;DHT22;17300;50.374;8.006;2023-07-13T08:16:25;37.50;25.40
30520;DHT22;17300;50.374;8.006;2023-07-13T08:18:52;37.70;25.50
30520;DHT22;17300;50.374;8.006;2023-07-13T08:21:19;38.00;25.60
30520;DHT22;17300;50.374;8.006;2023-07-13T08:23:47;38.60;25.70
30520;DHT22;17300;50.374;8.006;2023-07-13T08:26:13;39.20;25.80
30520;DHT22;17300;50.374;8.006;2023-07-13T08:28:42;39.80;25.60
30520;DHT22;17300;50.374;8.006;2023-07-13T08:31:09;40.50;24.80
30520;DHT22;17300;50.374;8.006;2023-07-13T08:33:36;41.00;24.30
30520;DHT22;17300;50.374;8.006;2023-07-13T08:36:04;41.70;24.30
30520;DHT22;17300;50.374;8.006;2023-07-13T08:38:31;42.20;23.60
30520;DHT22;17300;50.374;8.006;2023-07-13T08:40:58;42.80;22.90
30520;DHT22;17300;50.374;8.006;2023-07-13T08:43:27;43.10;22.70
30520;DHT22;17300;50.374;8.006;2023-07-13T08:45:59;43.40;22.30
30520;DHT22;17300;50.374;8.006;2023-07-13T08:48:28;43.60;21.80
30520;DHT22;17300;50.374;8.006;2023-07-13T08:51:00;43.80;22.00
30520;DHT22;17300;50.374;8.006;2023-07-13T08:53:34;44.10;21.90
30520;DHT22;17300;50.374;8.006;2023-07-13T08:56:03;44.40;21.50
30520;DHT22;17300;50.374;8.006;2023-07-13T08:58:33;44.60;21.60
30520;DHT22;17300;50.374;8.006;2023-07-13T09:01:13;44.80;21.50
30520;DHT22;17300;50.374;8.006;2023-07-13T09:03:49;45.00;21.00
30520;DHT22;17300;50.374;8.006;2023-07-13T09:06:20;45.10;20.70
30520;DHT22;17300;50.374;8.006;2023-07-13T09:08:57;45.20;21.20
30520;DHT22;17300;50.374;8.006;2023-07-13T09:11:36;45.30;20.40
30520;DHT22;17300;50.374;8.006;2023-07-13T09:14:21;45.30;20.40
30520;DHT22;17300;50.374;8.006;2023-07-13T09:16:54;45.20;20.10
30520;DHT22;17300;50.374;8.006;2023-07-13T09:19:24;45.00;19.80
30520;DHT22;17300;50.374;8.006;2023-07-13T09:21:54;44.80;19.90
30520;DHT22;17300;50.374;8.006;2023-07-13T09:24:29;44.60;20.00
30520;DHT22;17300;50.374;8.006;2023-07-13T09:29:37;44.20;20.00
30520;DHT22;17300;50.374;8.006;2023-07-13T09:32:12;44.10;20.30
30520;DHT22;17300;50.374;8.006;2023-07-13T09:34:41;44.00;20.10
30520;DHT22;17300;50.374;8.006;2023-07-13T09:37:07;43.90;20.30
30520;DHT22;17300;50.374;8.006;2023-07-13T09:39:38;43.80;20.40
30520;DHT22;17300;50.374;8.006;2023-07-13T09:42:11;43.70;20.20
30520;DHT22;17300;50.374;8.006;2023-07-13T09:44:50;43.70;20.20
30520;DHT22;17300;50.374;8.006;2023-07-13T09:47:21;43.60;20.10
30520;DHT22;17300;50.374;8.006;2023-07-13T09:49:54;43.70;20.40
30520;DHT22;17300;50.374;8.006;2023-07-13T09:52:21;43.80;20.80
30520;DHT22;17300;50.374;8.006;2023-07-13T09:54:50;44.10;21.00
30520;DHT22;17300;50.374;8.006;2023-07-13T09:57:19;44.30;20.70
30520;DHT22;17300;50.374;8.006;2023-07-13T09:59:51;44.50;20.30
30520;DHT22;17300;50.374;8.006;2023-07-13T10:02:27;44.60;20.30
30520;DHT22;17300;50.374;8.006;2023-07-13T10:04:59;44.80;20.20
30520;DHT22;17300;50.374;8.006;2023-07-13T10:07:26;44.90;20.10
30520;DHT22;17300;50.374;8.006;2023-07-13T10:09:53;45.10;19.80
30520;DHT22;17300;50.374;8.006;2023-07-13T10:12:21;45.00;19.50
30520;DHT22;17300;50.374;8.006;2023-07-13T10:14:51;44.90;19.60
30520;DHT22;17300;50.374;8.006;2023-07-13T10:17:19;44.80;19.70
30520;DHT22;17300;50.374;8.006;2023-07-13T10:19:53;44.50;19.00
30520;DHT22;17300;50.374;8.006;2023-07-13T10:22:25;44.10;18.90
30520;DHT22;17300;50.374;8.006;2023-07-13T10:24:53;43.80;19.20
30520;DHT22;17300;50.374;8.006;2023-07-13T10:27:27;43.40;19.60
30520;DHT22;17300;50.374;8.006;2023-07-13T10:30:02;43.10;19.40
30520;DHT22;17300;50.374;8.006;2023-07-13T10:32:31;42.70;19.30
30520;DHT22;17300;50.374;8.006;2023-07-13T10:34:59;42.20;19.00
30520;DHT22;17300;50.374;8.006;2023-07-13T10:37:37;41.70;18.90
30520;DHT22;17300;50.374;8.006;2023-07-13T10:40:06;40.90;18.90
30520;DHT22;17300;50.374;8.006;2023-07-13T10:42:42;40.10;19.00
30520;DHT22;17300;50.374;8.006;2023-07-13T10:45:15;39.30;19.70
30520;DHT22;17300;50.374;8.006;2023-07-13T10:47:42;38.80;20.30
30520;DHT22;17300;50.374;8.006;2023-07-13T10:50:17;38.40;20.60
30520;DHT22;17300;50.374;8.006;2023-07-13T10:52:47;38.20;21.20
30520;DHT22;17300;50.374;8.006;2023-07-13T10:55:36;38.20;21.80
30520;DHT22;17300;50.374;8.006;2023-07-13T10:58:11;38.50;22.30
30520;DHT22;17300;50.374;8.006;2023-07-13T11:00:46;38.80;22.50
30520;DHT22;17300;50.374;8.006;2023-07-13T11:03:16;39.00;21.60
30520;DHT22;17300;50.374;8.006;2023-07-13T11:05:48;39.20;21.40
30520;DHT22;17300;50.374;8.006;2023-07-13T11:08:20;39.20;21.20
30520;DHT22;17300;50.374;8.006;2023-07-13T11:10:53;39.20;21.50
30520;DHT22;17300;50.374;8.006;2023-07-13T11:13:55;39.30;21.80
30520;DHT22;17300;50.374;8.006;2023-07-13T11:16:38;39.50;22.10
30520;DHT22;17300;50.374;8.006;2023-07-13T11:19:28;39.80;21.60
30520;DHT22;17300;50.374;8.006;2023-07-13T11:22:14;40.10;21.70
30520;DHT22;17300;50.374;8.006;2023-07-13T11:24:59;40.40;21.50
30520;DHT22;17300;50.374;8.006;2023-07-13T11:27:41;40.60;20.90
30520;DHT22;17300;50.374;8.006;2023-07-13T11:30:22;40.80;20.60
30520;DHT22;17300;50.374;8.006;2023-07-13T11:32:51;40.70;19.90
30520;DHT22;17300;50.374;8.006;2023-07-13T11:35:22;40.40;19.60
30520;DHT22;17300;50.374;8.006;2023-07-13T11:37:51;40.00;19.40
30520;DHT22;17300;50.374;8.006;2023-07-13T11:40:27;39.40;19.20
30520;DHT22;17300;50.374;8.006;2023-07-13T11:42:59;38.70;19.40
30520;DHT22;17300;50.374;8.006;2023-07-13T11:45:26;38.00;19.50
30520;DHT22;17300;50.374;8.006;2023-07-13T11:47:53;37.40;19.90
30520;DHT22;17300;50.374;8.006;2023-07-13T11:50:24;36.80;20.40
30520;DHT22;17300;50.374;8.006;2023-07-13T11:52:53;36.20;20.70
30520;DHT22;17300;50.374;8.006;2023-07-13T11:55:22;35.70;20.90
30520;DHT22;17300;50.374;8.006;2023-07-13T11:57:51;35.40;21.50
30520;DHT22;17300;50.374;8.006;2023-07-13T12:00:23;35.10;21.60
30520;DHT22;17300;50.374;8.006;2023-07-13T12:02:53;34.80;21.70
30520;DHT22;17300;50.374;8.006;2023-07-13T12:05:21;34.60;22.00
30520;DHT22;17300;50.374;8.006;2023-07-13T12:07:51;34.40;22.00
30520;DHT22;17300;50.374;8.006;2023-07-13T12:10:22;34.30;22.70
30520;DHT22;17300;50.374;8.006;2023-07-13T12:12:53;34.10;22.40
30520;DHT22;17300;50.374;8.006;2023-07-13T12:15:20;34.00;22.70
30520;DHT22;17300;50.374;8.006;2023-07-13T12:17:49;33.80;22.80
30520;DHT22;17300;50.374;8.006;2023-07-13T12:20:20;33.70;22.80
30520;DHT22;17300;50.374;8.006;2023-07-13T12:22:49;33.50;22.90
30520;DHT22;17300;50.374;8.006;2023-07-13T12:25:19;33.40;22.90
30520;DHT22;17300;50.374;8.006;2023-07-13T12:27:47;33.20;23.00
30520;DHT22;17300;50.374;8.006;2023-07-13T12:30:26;33.00;23.10
30520;DHT22;17300;50.374;8.006;2023-07-13T12:32:59;32.70;23.20
30520;DHT22;17300;50.374;8.006;2023-07-13T12:35:28;32.50;23.30
30520;DHT22;17300;50.374;8.006;2023-07-13T12:37:57;32.30;23.50
30520;DHT22;17300;50.374;8.006;2023-07-13T12:40:31;32.00;23.70
30520;DHT22;17300;50.374;8.006;2023-07-13T12:42:59;31.80;24.00
30520;DHT22;17300;50.374;8.006;2023-07-13T12:45:30;31.70;24.10
30520;DHT22;17300;50.374;8.006;2023-07-13T12:47:58;31.50;24.30
30520;DHT22;17300;50.374;8.006;2023-07-13T12:50:30;31.40;24.40
30520;DHT22;17300;50.374;8.006;2023-07-13T12:53:02;31.30;24.90
30520;DHT22;17300;50.374;8.006;2023-07-13T12:55:31;31.30;24.80
30520;DHT22;17300;50.374;8.006;2023-07-13T12:57:59;31.20;24.80
30520;DHT22;17300;50.374;8.006;2023-07-13T13:00:31;31.20;24.90
30520;DHT22;17300;50.374;8.006;2023-07-13T13:03:02;31.20;25.10
30520;DHT22;17300;50.374;8.006;2023-07-13T13:05:29;31.20;25.40
30520;DHT22;17300;50.374;8.006;2023-07-13T13:07:57;31.20;25.50
30520;DHT22;17300;50.374;8.006;2023-07-13T13:10:24;31.20;25.70
30520;DHT22;17300;50.374;8.006;2023-07-13T13:12:52;31.20;25.50
30520;DHT22;17300;50.374;8.006;2023-07-13T13:15:19;31.20;25.50
30520;DHT22;17300;50.374;8.006;2023-07-13T13:17:47;31.30;25.50
30520;DHT22;17300;50.374;8.006;2023-07-13T13:20:16;31.30;25.40
30520;DHT22;17300;50.374;8.006;2023-07-13T13:22:43;31.30;25.40
30520;DHT22;17300;50.374;8.006;2023-07-13T13:25:10;31.20;25.30
30520;DHT22;17300;50.374;8.006;2023-07-13T13:27:37;31.20;25.40
30520;DHT22;17300;50.374;8.006;2023-07-13T13:30:10;31.20;25.30
30520;DHT22;17300;50.374;8.006;2023-07-13T13:32:38;31.10;25.40
30520;DHT22;17300;50.374;8.006;2023-07-13T13:35:07;31.00;25.30
30520;DHT22;17300;50.374;8.006;2023-07-13T13:37:38;30.90;25.50
30520;DHT22;17300;50.374;8.006;2023-07-13T13:40:14;31.00;25.50
30520;DHT22;17300;50.374;8.006;2023-07-13T13:42:41;30.90;25.60
30520;DHT22;17300;50.374;8.006;2023-07-13T13:45:10;30.90;25.60
30520;DHT22;17300;50.374;8.006;2023-07-13T13:47:38;30.80;25.70
30520;DHT22;17300;50.374;8.006;2023-07-13T13:50:12;30.80;25.80
30520;DHT22;17300;50.374;8.006;2023-07-13T13:52:40;30.70;26.00
30520;DHT22;17300;50.374;8.006;2023-07-13T13:55:12;30.70;25.90
30520;DHT22;17300;50.374;8.006;2023-07-13T13:57:39;30.60;25.90
30520;DHT22;17300;50.374;8.006;2023-07-13T14:00:09;30.60;25.90
30520;DHT22;17300;50.374;8.006;2023-07-13T14:02:37;30.50;26.00
30520;DHT22;17300;50.374;8.006;2023-07-13T14:05:05;30.50;26.00
30520;DHT22;17300;50.374;8.006;2023-07-13T14:07:33;30.40;26.00
30520;DHT22;17300;50.374;8.006;2023-07-13T14:10:00;30.30;26.00
30520;DHT22;17300;50.374;8.006;2023-07-13T14:12:27;30.30;26.00
30520;DHT22;17300;50.374;8.006;2023-07-13T14:14:55;30.30;26.20
30520;DHT22;17300;50.374;8.006;2023-07-13T14:17:26;30.20;26.20
30520;DHT22;17300;50.374;8.006;2023-07-13T14:19:53;30.20;26.40
30520;DHT22;17300;50.374;8.006;2023-07-13T14:22:23;30.20;26.40
30520;DHT22;17300;50.374;8.006;2023-07-13T14:24:49;30.10;26.40
30520;DHT22;17300;50.374;8.006;2023-07-13T14:27:16;30.10;27.20
30520;DHT22;17300;50.374;8.006;2023-07-13T14:29:43;30.10;27.20
30520;DHT22;17300;50.374;8.006;2023-07-13T14:32:10;30.10;27.20
30520;DHT22;17300;50.374;8.006;2023-07-13T14:34:39;30.10;27.20
30520;DHT22;17300;50.374;8.006;2023-07-13T14:37:12;30.00;27.20
30520;DHT22;17300;50.374;8.006;2023-07-13T14:39:40;30.00;27.50
30520;DHT22;17300;50.374;8.006;2023-07-13T14:42:09;30.00;27.30
30520;DHT22;17300;50.374;8.006;2023-07-13T14:44:37;29.90;27.30
30520;DHT22;17300;50.374;8.006;2023-07-13T14:47:05;29.90;27.40
30520;DHT22;17300;50.374;8.006;2023-07-13T14:49:34;29.90;27.50
30520;DHT22;17300;50.374;8.006;2023-07-13T14:52:08;29.80;27.40
30520;DHT22;17300;50.374;8.006;2023-07-13T14:54:37;29.80;27.60
30520;DHT22;17300;50.374;8.006;2023-07-13T14:57:12;29.70;27.40
30520;DHT22;17300;50.374;8.006;2023-07-13T14:59:39;29.70;27.50
30520;DHT22;17300;50.374;8.006;2023-07-13T15:02:15;29.60;27.40
30520;DHT22;17300;50.374;8.006;2023-07-13T15:04:42;29.60;27.60
30520;DHT22;17300;50.374;8.006;2023-07-13T15:07:11;29.60;27.40
30520;DHT22;17300;50.374;8.006;2023-07-13T15:09:39;29.60;27.40
30520;DHT22;17300;50.374;8.006;2023-07-13T15:12:06;29.60;27.40
30520;DHT22;17300;50.374;8.006;2023-07-13T15:14:33;29.60;27.40
30520;DHT22;17300;50.374;8.006;2023-07-13T15:17:00;29.60;27.40
30520;DHT22;17300;50.374;8.006;2023-07-13T15:19:27;29.60;27.70
30520;DHT22;17300;50.374;8.006;2023-07-13T15:21:54;29.70;28.10
30520;DHT22;17300;50.374;8.006;2023-07-13T15:24:24;29.70;27.90
30520;DHT22;17300;50.374;8.006;2023-07-13T15:26:51;29.70;27.80
30520;DHT22;17300;50.374;8.006;2023-07-13T15:29:17;29.70;27.80
30520;DHT22;17300;50.374;8.006;2023-07-13T15:31:44;29.80;28.30
30520;DHT22;17300;50.374;8.006;2023-07-13T15:34:13;29.70;28.30
30520;DHT22;17300;50.374;8.006;2023-07-13T15:36:40;29.70;28.20
30520;DHT22;17300;50.374;8.006;2023-07-13T15:39:08;29.70;28.30
30520;DHT22;17300;50.374;8.006;2023-07-13T15:41:41;29.70;28.00
30520;DHT22;17300;50.374;8.006;2023-07-13T15:44:23;29.60;27.90